createdAt,value
2024-03-28T00:00:38.188Z,13.60
2024-03-28T00:03:43.219Z,11.90
2024-03-28T00:06:33.205Z,13.20
2024-03-28T00:09:22.578Z,9.00
2024-03-28T00:12:12.359Z,16.20
2024-03-28T00:15:02.447Z,12.90
2024-03-28T00:17:52.434Z,13.10
2024-03-28T00:20:42.106Z,9.10
2024-03-28T00:23:31.686Z,9.40
2024-03-28T00:26:21.260Z,11.60
2024-03-28T00:29:10.932Z,10.50
2024-03-28T00:32:01.126Z,9.80
2024-03-28T00:34:51.315Z,12.10
2024-03-28T00:37:41.201Z,12.60
2024-03-28T00:40:31.306Z,12.30
2024-03-28T00:43:21.787Z,10.20
2024-03-28T00:46:12.389Z,8.40
2024-03-28T00:49:02.374Z,11.00
2024-03-28T00:51:52.043Z,14.30
2024-03-28T00:54:41.721Z,11.30
2024-03-28T00:57:31.392Z,13.20
2024-03-28T01:00:21.383Z,12.90
2024-03-28T01:03:11.059Z,14.40
2024-03-28T01:06:01.186Z,10.40
2024-03-28T01:08:51.137Z,12.70
2024-03-28T01:11:40.922Z,10.60
2024-03-28T01:14:32.015Z,11.10
2024-03-28T01:17:22.105Z,14.80
2024-03-28T01:20:12.301Z,13.70
2024-03-28T01:23:02.667Z,12.60
2024-03-28T01:25:52.680Z,13.90
2024-03-28T01:28:44.613Z,14.70
2024-03-28T01:34:24.374Z,18.40
2024-03-28T01:37:14.684Z,13.70
2024-03-28T01:40:05.142Z,8.20
2024-03-28T01:43:04.396Z,17.50
2024-03-28T01:45:54.255Z,18.50
2024-03-28T01:48:45.497Z,16.20
2024-03-28T01:51:35.032Z,13.60
2024-03-28T01:54:24.918Z,13.20
2024-03-28T01:57:15.172Z,10.50
2024-03-28T02:00:05.701Z,8.10
2024-03-28T02:03:02.424Z,11.50
2024-03-28T02:05:52.627Z,12.90
2024-03-28T02:08:42.000Z,11.00
2024-03-28T02:11:32.201Z,12.20
2024-03-28T02:14:21.879Z,15.00
2024-03-28T02:17:11.345Z,9.00
2024-03-28T02:20:00.709Z,16.30
2024-03-28T02:22:50.811Z,12.10
2024-03-28T02:25:40.174Z,13.60
2024-03-28T02:28:35.534Z,12.80
2024-03-28T02:31:25.188Z,11.80
2024-03-28T02:34:16.526Z,11.10
2024-03-28T02:37:06.150Z,12.30
2024-03-28T02:39:56.540Z,15.00
2024-03-28T02:42:45.913Z,16.10
2024-03-28T02:45:35.709Z,14.00
2024-03-28T02:48:25.686Z,14.80
2024-03-28T02:51:15.564Z,14.70
2024-03-28T02:54:05.234Z,12.50
2024-03-28T02:56:54.815Z,13.50
2024-03-28T02:59:44.795Z,18.30
2024-03-28T03:02:34.383Z,18.80
2024-03-28T03:05:23.953Z,17.50
2024-03-28T03:08:13.317Z,14.20
2024-03-28T03:11:03.623Z,12.70
2024-03-28T03:13:53.598Z,13.00
2024-03-28T03:16:43.278Z,15.40
2024-03-28T03:19:32.778Z,16.30
2024-03-28T03:22:23.549Z,15.30
2024-03-28T03:25:14.658Z,12.00
2024-03-28T03:28:23.497Z,11.90
2024-03-28T03:31:32.014Z,17.90
2024-03-28T03:34:36.530Z,16.70
2024-03-28T03:37:27.329Z,14.00
2024-03-28T03:40:17.136Z,22.00
2024-03-28T03:43:06.912Z,15.50
2024-03-28T03:45:56.978Z,18.30
2024-03-28T03:48:47.171Z,21.70
2024-03-28T03:51:37.060Z,23.20
2024-03-28T03:54:26.842Z,18.70
2024-03-28T03:57:17.234Z,27.80
2024-03-28T04:00:11.218Z,16.70
2024-03-28T04:03:00.771Z,11.10
2024-03-28T04:05:51.079Z,19.00
2024-03-28T04:08:40.545Z,25.60
2024-03-28T04:11:30.220Z,24.80
2024-03-28T04:14:20.522Z,19.30
2024-03-28T04:17:10.000Z,15.80
2024-03-28T04:19:59.668Z,19.50
2024-03-28T04:22:49.451Z,17.00
2024-03-28T04:25:38.925Z,19.10
2024-03-28T04:28:28.703Z,19.10
2024-03-28T04:31:18.594Z,28.30
2024-03-28T04:34:08.878Z,18.40
2024-03-28T04:36:58.854Z,18.50
2024-03-28T04:39:49.255Z,23.40
2024-03-28T04:42:38.831Z,19.40
2024-03-28T04:45:28.603Z,18.80
2024-03-28T04:48:17.872Z,22.20
2024-03-28T04:51:08.159Z,25.30
2024-03-28T04:53:58.047Z,25.00
2024-03-28T04:56:48.877Z,25.40
2024-03-28T04:59:38.628Z,34.80
2024-03-28T05:02:28.831Z,25.40
2024-03-28T05:05:18.504Z,23.40
2024-03-28T05:08:08.374Z,29.30
2024-03-28T05:10:58.256Z,30.20
2024-03-28T05:13:47.942Z,32.90
2024-03-28T05:16:38.626Z,23.00
2024-03-28T05:19:28.519Z,25.30
2024-03-28T05:22:18.097Z,25.80
2024-03-28T05:25:08.400Z,22.30
2024-03-28T05:27:58.172Z,28.50
2024-03-28T05:30:48.667Z,25.30
2024-03-28T05:33:38.762Z,21.10
2024-03-28T05:36:28.136Z,21.90
2024-03-28T05:39:20.873Z,23.60
2024-03-28T05:42:10.556Z,20.10
2024-03-28T05:45:00.017Z,19.10
2024-03-28T05:47:49.908Z,20.00
2024-03-28T05:50:40.093Z,18.20
2024-03-28T05:53:29.673Z,16.20
2024-03-28T05:56:20.269Z,25.50
2024-03-28T05:59:10.253Z,25.70
2024-03-28T06:02:00.200Z,23.00
2024-03-28T06:04:50.323Z,19.20
2024-03-28T06:07:40.270Z,19.40
2024-03-28T06:10:29.727Z,31.00
2024-03-28T06:13:19.574Z,19.40
2024-03-28T06:16:10.180Z,28.00
2024-03-28T06:19:00.347Z,19.30
2024-03-28T06:21:50.236Z,23.50
2024-03-28T06:24:40.314Z,16.50
2024-03-28T06:27:30.504Z,10.70
2024-03-28T06:30:27.047Z,16.70
2024-03-28T06:33:16.717Z,13.50
2024-03-28T06:36:07.675Z,13.60
2024-03-28T06:38:57.106Z,9.00
2024-03-28T06:41:47.399Z,11.50
2024-03-28T06:44:37.585Z,10.80
2024-03-28T06:47:27.270Z,8.80
2024-03-28T06:50:17.557Z,9.80
2024-03-28T06:53:07.235Z,7.40
2024-03-28T06:55:57.012Z,10.30
2024-03-28T06:58:46.385Z,12.00
2024-03-28T07:01:36.060Z,8.70
2024-03-28T07:04:25.950Z,12.50
2024-03-28T07:07:15.616Z,10.40
2024-03-28T07:10:05.713Z,8.00
2024-03-28T07:12:56.206Z,11.20
2024-03-28T07:15:45.882Z,7.20
2024-03-28T07:18:35.901Z,6.80
2024-03-28T07:21:25.855Z,6.50
2024-03-28T07:24:16.386Z,8.00
2024-03-28T07:27:06.429Z,8.40
2024-03-28T07:29:56.412Z,9.50
2024-03-28T07:32:49.882Z,9.80
2024-03-28T07:35:39.256Z,7.00
2024-03-28T07:38:29.032Z,5.70
2024-03-28T07:41:19.337Z,8.20
2024-03-28T07:44:09.619Z,10.20
2024-03-28T07:46:59.598Z,6.80
2024-03-28T07:49:49.173Z,5.20
2024-03-28T07:52:38.746Z,5.90
2024-03-28T07:55:28.121Z,6.80
2024-03-28T07:58:17.494Z,5.70
2024-03-28T08:01:10.167Z,5.80
2024-03-28T08:03:59.512Z,4.60
2024-03-28T08:06:49.292Z,6.10
2024-03-28T08:09:38.970Z,9.70
2024-03-28T08:12:29.456Z,4.60
2024-03-28T08:15:19.548Z,5.00
2024-03-28T08:18:09.270Z,7.40
2024-03-28T08:20:58.615Z,4.80
2024-03-28T08:23:48.782Z,6.60
2024-03-28T08:26:41.356Z,5.20
2024-03-28T08:29:31.311Z,5.20
2024-03-28T08:32:21.299Z,4.50
2024-03-28T08:35:14.981Z,4.90
2024-03-28T08:38:05.163Z,4.80
2024-03-28T08:40:55.043Z,2.50
2024-03-28T08:43:49.435Z,2.40
2024-03-28T08:46:39.736Z,3.70
2024-03-28T08:49:29.929Z,4.70
2024-03-28T08:52:20.510Z,2.80
2024-03-28T08:55:12.346Z,2.70
2024-03-28T08:58:02.024Z,1.80
2024-03-28T09:00:53.136Z,1.80
2024-03-28T09:03:43.847Z,3.10
2024-03-28T09:06:33.716Z,2.50
2024-03-28T09:09:24.819Z,1.50
2024-03-28T09:12:13.987Z,2.80
2024-03-28T09:15:05.207Z,1.30
2024-03-28T09:20:46.938Z,1.40
2024-03-28T09:23:36.697Z,1.60
2024-03-28T09:26:26.569Z,1.80
2024-03-28T09:29:21.375Z,1.60
2024-03-28T09:32:10.948Z,2.90
2024-03-28T09:35:01.047Z,3.10
2024-03-28T09:37:50.608Z,2.50
2024-03-28T09:40:47.910Z,2.00
2024-03-28T09:43:37.436Z,3.40
2024-03-28T09:46:29.312Z,2.60
2024-03-28T09:49:18.938Z,3.20
2024-03-28T09:52:08.932Z,6.90
2024-03-28T09:54:58.806Z,6.20
2024-03-28T09:57:48.183Z,9.10
2024-03-28T10:00:38.651Z,8.00
2024-03-28T10:03:31.523Z,4.70
2024-03-28T10:06:21.815Z,4.60
2024-03-28T10:12:14.096Z,5.60
2024-03-28T10:15:05.375Z,4.70
2024-03-28T10:18:01.871Z,3.60
2024-03-28T10:20:57.486Z,2.70
2024-03-28T10:23:47.329Z,4.30
2024-03-28T10:26:37.517Z,4.40
2024-03-28T10:29:32.460Z,3.40
2024-03-28T10:32:23.284Z,3.70
2024-03-28T10:35:13.209Z,3.20
2024-03-28T10:38:09.439Z,5.10
2024-03-28T10:41:02.188Z,6.00
2024-03-28T10:43:51.893Z,4.50
2024-03-28T10:46:41.547Z,4.10
2024-03-28T10:49:37.040Z,2.70
2024-03-28T10:52:39.441Z,3.60
2024-03-28T10:55:36.343Z,4.00
2024-03-28T10:58:26.163Z,2.30
2024-03-28T11:01:17.938Z,1.30
2024-03-28T11:06:57.134Z,2.90
2024-03-28T11:09:46.715Z,2.70
2024-03-28T11:12:37.922Z,3.00
2024-03-28T11:15:28.119Z,3.60
2024-03-28T11:18:17.992Z,2.10
2024-03-28T11:21:07.668Z,2.90
2024-03-28T11:23:58.783Z,1.10
2024-03-28T11:26:58.502Z,1.30
2024-03-28T11:29:48.686Z,2.30
2024-03-28T11:32:38.292Z,1.80
2024-03-28T11:35:27.935Z,0.50
2024-03-28T11:38:17.511Z,2.30
2024-03-28T11:41:07.188Z,1.30
2024-03-28T11:43:56.867Z,2.10
2024-03-28T11:46:46.454Z,2.30
2024-03-28T11:49:36.180Z,1.50
2024-03-28T11:52:26.212Z,1.80
2024-03-28T11:55:15.786Z,2.10
2024-03-28T11:58:10.511Z,1.60
2024-03-28T12:01:04.246Z,2.30
2024-03-28T12:03:53.530Z,1.30
2024-03-28T12:06:43.813Z,2.40
2024-03-28T12:09:33.594Z,1.20
2024-03-28T12:12:23.583Z,2.40
2024-03-28T12:15:13.359Z,1.90
2024-03-28T12:18:03.595Z,1.70
2024-03-28T12:21:02.540Z,3.00
2024-03-28T12:23:52.118Z,1.60
2024-03-28T12:26:42.209Z,2.10
2024-03-28T12:29:31.987Z,2.50
2024-03-28T12:32:21.870Z,4.70
2024-03-28T12:35:13.139Z,1.00
2024-03-28T12:38:04.688Z,1.40
2024-03-28T12:40:55.721Z,1.40
2024-03-28T12:43:56.025Z,1.20
2024-03-28T12:46:46.336Z,2.00
2024-03-28T12:49:36.520Z,1.50
2024-03-28T12:52:26.165Z,1.90
2024-03-28T12:55:18.351Z,1.50
2024-03-28T12:58:08.640Z,2.00
2024-03-28T13:00:58.204Z,1.20
2024-03-28T13:03:52.789Z,1.70
2024-03-28T13:06:53.870Z,2.50
2024-03-28T13:09:45.563Z,1.10
2024-03-28T13:12:35.969Z,1.60
2024-03-28T13:49:58.521Z,3.20
2024-03-28T13:52:47.591Z,45.20
2024-03-28T13:55:37.593Z,32.30
2024-03-28T13:58:27.048Z,4.40
2024-03-28T14:01:18.056Z,18.00
2024-03-28T14:04:08.342Z,4.90
2024-03-28T14:06:57.615Z,7.60
2024-03-28T14:09:49.980Z,8.60
2024-03-28T14:12:41.384Z,4.70
2024-03-28T14:15:31.260Z,8.90
2024-03-28T14:18:21.037Z,2.00
2024-03-28T14:21:11.025Z,9.30
2024-03-28T14:24:00.801Z,5.50
2024-03-28T14:26:50.679Z,7.10
2024-03-28T14:29:40.464Z,7.50
2024-03-28T14:32:31.387Z,5.60
2024-03-28T14:35:21.253Z,7.90
2024-03-28T14:38:11.232Z,4.90
2024-03-28T14:41:05.734Z,4.10
2024-03-28T14:43:55.618Z,3.40
2024-03-28T14:46:45.210Z,3.30
2024-03-28T14:49:34.828Z,3.50
2024-03-28T14:52:24.941Z,3.70
2024-03-28T14:55:15.861Z,3.10
2024-03-28T14:58:05.326Z,3.30
2024-03-28T15:00:55.409Z,2.10
2024-03-28T15:03:45.907Z,1.70
2024-03-28T15:06:35.677Z,3.80
2024-03-28T15:09:25.366Z,3.50
2024-03-28T15:12:15.039Z,1.70
2024-03-28T15:15:05.128Z,3.40
2024-03-28T15:17:54.906Z,2.90
2024-03-28T15:20:44.382Z,1.60
2024-03-28T15:23:34.653Z,1.20
2024-03-28T15:26:24.964Z,4.00
2024-03-28T15:29:15.868Z,7.30
2024-03-28T15:32:15.160Z,12.10
2024-03-28T15:35:06.386Z,6.70
2024-03-28T15:37:57.502Z,6.50
2024-03-28T15:40:47.394Z,3.30
2024-03-28T15:43:37.367Z,3.50
2024-03-28T15:46:27.244Z,3.10
2024-03-28T15:49:16.829Z,2.90
2024-03-28T15:52:06.661Z,2.10
2024-03-28T15:54:57.105Z,2.40
2024-03-28T15:57:46.876Z,1.60
2024-03-28T16:00:36.595Z,2.20
2024-03-28T16:03:26.236Z,2.20
2024-03-28T16:06:17.492Z,2.80
2024-03-28T16:09:08.353Z,3.10
2024-03-28T16:11:58.641Z,4.60
2024-03-28T16:14:48.428Z,3.40
2024-03-28T16:17:38.404Z,3.30
2024-03-28T16:20:28.188Z,5.10
2024-03-28T16:23:18.512Z,3.10
2024-03-28T16:26:08.666Z,3.70
2024-03-28T16:29:06.743Z,4.30
2024-03-28T16:32:01.025Z,3.80
2024-03-28T16:34:50.829Z,5.90
2024-03-28T16:37:40.907Z,18.20
2024-03-28T16:40:30.281Z,7.70
2024-03-28T16:43:19.946Z,10.60
2024-03-28T16:46:09.823Z,10.10
2024-03-28T16:48:59.917Z,30.60
2024-03-28T16:51:50.104Z,22.30
2024-03-28T16:54:39.977Z,8.90
2024-03-28T16:57:29.365Z,10.60
2024-03-28T17:00:19.653Z,22.50
2024-03-28T17:03:09.324Z,15.80
2024-03-28T17:05:59.514Z,9.90
2024-03-28T17:08:49.506Z,11.10
2024-03-28T17:11:39.488Z,15.90
2024-03-28T17:14:29.268Z,9.50
2024-03-28T17:17:20.960Z,10.20
2024-03-28T17:20:11.491Z,7.60
2024-03-28T17:23:01.887Z,9.80
2024-03-28T17:25:51.965Z,35.50
2024-03-28T17:28:41.133Z,12.40
2024-03-28T17:31:31.115Z,16.30
2024-03-28T17:34:21.814Z,23.70
2024-03-28T17:37:11.801Z,45.10
2024-03-28T17:40:01.749Z,31.00
2024-03-28T17:42:52.540Z,17.60
2024-03-28T17:45:42.061Z,17.00
2024-03-28T17:48:31.742Z,31.60
2024-03-28T17:51:21.220Z,23.80
2024-03-28T17:54:10.989Z,22.50
2024-03-28T17:57:00.900Z,11.50
2024-03-28T17:59:50.246Z,13.70
2024-03-28T18:02:40.433Z,10.30
2024-03-28T18:05:31.860Z,12.90
2024-03-28T18:08:22.583Z,35.50
2024-03-28T18:11:12.434Z,19.60
2024-03-28T18:14:02.524Z,17.60
2024-03-28T18:16:52.131Z,15.70
2024-03-28T18:19:41.876Z,9.00
2024-03-28T18:22:31.868Z,9.60
2024-03-28T18:25:21.544Z,6.80
2024-03-28T18:28:11.420Z,7.30
2024-03-28T18:31:06.060Z,10.90
2024-03-28T18:33:56.719Z,8.90
2024-03-28T18:36:47.022Z,12.50
2024-03-28T18:39:36.995Z,8.70
2024-03-28T18:42:27.290Z,9.90
2024-03-28T18:45:17.061Z,6.90
2024-03-28T18:48:07.617Z,5.90
2024-03-28T18:50:57.240Z,7.80
2024-03-28T18:53:47.017Z,8.40
2024-03-28T18:56:37.015Z,14.30
2024-03-28T18:59:26.785Z,9.10
2024-03-28T19:02:16.260Z,10.70
2024-03-28T19:05:05.958Z,9.50
2024-03-28T19:07:55.404Z,10.70
2024-03-28T19:10:45.400Z,8.00
2024-03-28T19:13:37.316Z,10.80
2024-03-28T19:16:27.618Z,8.20
2024-03-28T19:19:17.702Z,8.30
2024-03-28T19:22:07.580Z,8.60
2024-03-28T19:24:57.468Z,5.90
2024-03-28T19:27:51.446Z,5.60
2024-03-28T19:30:45.239Z,6.90
2024-03-28T19:33:36.335Z,5.90
2024-03-28T19:36:29.390Z,7.10
2024-03-28T19:39:19.470Z,6.50
2024-03-28T19:42:09.048Z,8.10
2024-03-28T19:44:59.333Z,7.70
2024-03-28T19:47:50.638Z,5.90
2024-03-28T19:50:40.337Z,5.80
2024-03-28T19:53:30.218Z,4.90
2024-03-28T19:56:20.207Z,7.20
2024-03-28T19:59:09.769Z,6.40
2024-03-28T20:02:00.658Z,7.10
2024-03-28T20:05:12.266Z,7.80
2024-03-28T20:08:05.647Z,6.20
2024-03-28T20:10:58.180Z,7.80
2024-03-28T20:13:47.944Z,7.80
2024-03-28T20:16:37.748Z,11.40
2024-03-28T20:19:27.421Z,14.70
2024-03-28T20:22:16.790Z,9.20
2024-03-28T20:25:07.599Z,7.30
2024-03-28T20:27:57.266Z,9.30
2024-03-28T20:30:47.157Z,12.50
2024-03-28T20:33:37.234Z,12.80
2024-03-28T20:36:26.613Z,10.10
2024-03-28T20:39:16.590Z,9.70
2024-03-28T20:42:06.574Z,15.90
2024-03-28T20:44:59.024Z,14.90
2024-03-28T20:47:48.622Z,9.10
2024-03-28T20:50:40.469Z,8.80
2024-03-28T20:53:30.200Z,11.00
2024-03-28T20:56:21.448Z,13.20
2024-03-28T20:59:11.546Z,7.40
2024-03-28T21:02:00.772Z,59.50
2024-03-28T21:04:50.763Z,86.00
2024-03-28T21:07:59.071Z,89.90
2024-03-28T21:10:49.056Z,4.60
2024-03-28T21:13:38.421Z,14.50
2024-03-28T21:16:28.622Z,10.50
2024-03-28T21:19:19.519Z,10.90
2024-03-28T21:22:12.527Z,10.70
2024-03-28T21:25:02.257Z,18.80
2024-03-28T21:27:51.930Z,38.80
2024-03-28T21:30:41.400Z,84.70
2024-03-28T21:33:30.579Z,87.50
2024-03-28T21:36:20.556Z,35.00
2024-03-28T21:39:11.037Z,25.40
2024-03-28T21:42:00.935Z,72.50
2024-03-28T21:45:06.055Z,24.80
2024-03-28T21:48:03.235Z,8.00
2024-03-28T21:50:53.311Z,23.40
2024-03-28T21:53:43.404Z,6.30
2024-03-28T21:56:34.324Z,11.40
2024-03-28T21:59:23.789Z,6.10
2024-03-28T22:02:14.281Z,7.20
2024-03-28T22:05:04.358Z,5.20
2024-03-28T22:07:54.570Z,6.40
2024-03-28T22:10:43.830Z,7.20
2024-03-28T22:13:33.607Z,11.00
2024-03-28T22:16:23.590Z,7.10
2024-03-28T22:19:13.371Z,5.20
2024-03-28T22:22:03.248Z,5.60
2024-03-28T22:24:59.812Z,11.40
2024-03-28T22:27:51.204Z,7.20
2024-03-28T22:30:41.298Z,3.70
2024-03-28T22:33:31.279Z,12.60
2024-03-28T22:36:21.061Z,15.10
2024-03-28T22:39:10.628Z,19.90
2024-03-28T22:42:00.414Z,13.50
2024-03-28T22:44:49.878Z,19.60
2024-03-28T22:47:40.478Z,18.60
2024-03-28T22:50:30.167Z,11.30
2024-03-28T22:53:21.452Z,3.10
2024-03-28T22:59:01.390Z,2.40
2024-03-28T23:01:50.911Z,3.50
2024-03-28T23:04:40.698Z,4.50
2024-03-28T23:07:30.284Z,2.80
2024-03-28T23:10:19.849Z,3.10
2024-03-28T23:13:09.529Z,3.30
2024-03-28T23:15:58.905Z,4.00
2024-03-28T23:18:49.086Z,3.90
2024-03-28T23:21:39.036Z,6.20
2024-03-28T23:24:29.153Z,5.20
2024-03-28T23:27:19.034Z,7.00
2024-03-28T23:30:09.567Z,7.00
2024-03-28T23:32:59.002Z,6.30
2024-03-28T23:35:48.785Z,5.80
2024-03-28T23:38:38.253Z,6.30
2024-03-28T23:41:28.552Z,5.00
2024-03-28T23:44:18.533Z,7.00
2024-03-28T23:47:08.111Z,5.40
2024-03-28T23:49:59.542Z,5.10
2024-03-28T23:52:48.995Z,4.00
2024-03-28T23:55:48.201Z,6.70
2024-03-28T23:58:37.881Z,5.20
